sensor_id;sensor_type;location;lat;lon;timestamp;temperature;humidity
20416;DHT22;10367;52.202;5.996;2022-11-20T00:01:41;-2.70;99.90
20416;DHT22;10367;52.202;5.996;2022-11-20T00:04:10;-2.70;99.90
20416;DHT22;10367;52.202;5.996;2022-11-20T00:06:40;-2.70;99.90
20416;DHT22;10367;52.202;5.996;2022-11-20T00:09:10;-2.70;99.90
20416;DHT22;10367;52.202;5.996;2022-11-20T00:11:38;-3.00;99.90
20416;DHT22;10367;52.202;5.996;2022-11-20T00:14:09;-3.10;99.90
20416;DHT22;10367;52.202;5.996;2022-11-20T00:16:38;-2.90;99.90
20416;DHT22;10367;52.202;5.996;2022-11-20T00:19:07;-3.00;99.90
20416;DHT22;10367;52.202;5.996;2022-11-20T00:21:35;-3.10;99.90
20416;DHT22;10367;52.202;5.996;2022-11-20T00:24:08;-3.10;99.90
20416;DHT22;10367;52.202;5.996;2022-11-20T00:26:40;-3.00;99.90
20416;DHT22;10367;52.202;5.996;2022-11-20T00:29:09;-2.90;99.90
20416;DHT22;10367;52.202;5.996;2022-11-20T00:31:37;-2.90;99.90
20416;DHT22;10367;52.202;5.996;2022-11-20T00:34:06;-3.10;99.90
20416;DHT22;10367;52.202;5.996;2022-11-20T00:36:35;-3.10;99.90
20416;DHT22;10367;52.202;5.996;2022-11-20T00:39:05;-3.20;99.90
20416;DHT22;10367;52.202;5.996;2022-11-20T00:41:34;-3.30;99.90
20416;DHT22;10367;52.202;5.996;2022-11-20T00:44:03;-3.20;99.90
20416;DHT22;10367;52.202;5.996;2022-11-20T00:46:31;-3.00;99.90
20416;DHT22;10367;52.202;5.996;2022-11-20T00:49:00;-3.10;99.90
20416;DHT22;10367;52.202;5.996;2022-11-20T00:51:29;-3.00;99.90
20416;DHT22;10367;52.202;5.996;2022-11-20T00:53:58;-2.90;99.90
20416;DHT22;10367;52.202;5.996;2022-11-20T00:56:28;-3.00;99.90
20416;DHT22;10367;52.202;5.996;2022-11-20T00:58:59;-3.00;99.90
20416;DHT22;10367;52.202;5.996;2022-11-20T01:01:28;-2.90;99.90
20416;DHT22;10367;52.202;5.996;2022-11-20T01:03:59;-2.90;99.90
20416;DHT22;10367;52.202;5.996;2022-11-20T01:06:29;-2.90;99.90
20416;DHT22;10367;52.202;5.996;2022-11-20T01:09:00;-3.00;99.90
20416;DHT22;10367;52.202;5.996;2022-11-20T01:11:31;-3.10;99.90
20416;DHT22;10367;52.202;5.996;2022-11-20T01:14:02;-3.10;99.90
20416;DHT22;10367;52.202;5.996;2022-11-20T01:16:33;-3.10;99.90
20416;DHT22;10367;52.202;5.996;2022-11-20T01:19:04;-3.10;99.90
20416;DHT22;10367;52.202;5.996;2022-11-20T01:21:35;-3.10;99.90
20416;DHT22;10367;52.202;5.996;2022-11-20T01:24:06;-3.20;99.90
20416;DHT22;10367;52.202;5.996;2022-11-20T01:26:38;-3.10;99.90
20416;DHT22;10367;52.202;5.996;2022-11-20T01:29:08;-3.30;99.90
20416;DHT22;10367;52.202;5.996;2022-11-20T01:31:38;-3.20;99.90
20416;DHT22;10367;52.202;5.996;2022-11-20T01:34:10;-3.20;99.90
20416;DHT22;10367;52.202;5.996;2022-11-20T01:36:40;-3.10;99.90
20416;DHT22;10367;52.202;5.996;2022-11-20T01:39:11;-3.20;99.90
20416;DHT22;10367;52.202;5.996;2022-11-20T01:41:44;-3.20;99.90
20416;DHT22;10367;52.202;5.996;2022-11-20T01:44:55;-3.20;99.90
20416;DHT22;10367;52.202;5.996;2022-11-20T01:47:29;-3.30;99.90
20416;DHT22;10367;52.202;5.996;2022-11-20T01:50:03;-3.30;99.90
20416;DHT22;10367;52.202;5.996;2022-11-20T01:52:36;-3.40;99.90
20416;DHT22;10367;52.202;5.996;2022-11-20T01:55:08;-3.40;99.90
20416;DHT22;10367;52.202;5.996;2022-11-20T01:57:40;-3.40;99.90
20416;DHT22;10367;52.202;5.996;2022-11-20T02:00:11;-3.40;99.90
20416;DHT22;10367;52.202;5.996;2022-11-20T02:02:43;-3.30;99.90
20416;DHT22;10367;52.202;5.996;2022-11-20T02:05:18;-3.30;99.90
20416;DHT22;10367;52.202;5.996;2022-11-20T02:07:48;-3.30;99.90
20416;DHT22;10367;52.202;5.996;2022-11-20T02:10:18;-3.30;99.90
20416;DHT22;10367;52.202;5.996;2022-11-20T02:12:48;-3.20;99.90
20416;DHT22;10367;52.202;5.996;2022-11-20T02:15:34;-3.20;99.90
20416;DHT22;10367;52.202;5.996;2022-11-20T02:18:04;-3.40;99.90
20416;DHT22;10367;52.202;5.996;2022-11-20T02:20:33;-3.60;99.90
20416;DHT22;10367;52.202;5.996;2022-11-20T02:23:05;-3.70;99.90
20416;DHT22;10367;52.202;5.996;2022-11-20T02:25:39;-3.50;99.90
20416;DHT22;10367;52.202;5.996;2022-11-20T02:28:09;-3.40;99.90
20416;DHT22;10367;52.202;5.996;2022-11-20T02:30:38;-3.30;99.90
20416;DHT22;10367;52.202;5.996;2022-11-20T02:33:07;-3.40;99.90
20416;DHT22;10367;52.202;5.996;2022-11-20T02:35:45;-3.70;99.90
20416;DHT22;10367;52.202;5.996;2022-11-20T02:38:15;-3.80;99.90
20416;DHT22;10367;52.202;5.996;2022-11-20T02:40:45;-3.90;99.90
20416;DHT22;10367;52.202;5.996;2022-11-20T02:43:20;-3.90;99.90
20416;DHT22;10367;52.202;5.996;2022-11-20T02:45:49;-3.70;99.90
20416;DHT22;10367;52.202;5.996;2022-11-20T02:48:18;-3.60;99.90
20416;DHT22;10367;52.202;5.996;2022-11-20T02:50:47;-3.60;99.90
20416;DHT22;10367;52.202;5.996;2022-11-20T02:53:18;-3.50;99.90
20416;DHT22;10367;52.202;5.996;2022-11-20T02:55:49;-3.70;99.90
20416;DHT22;10367;52.202;5.996;2022-11-20T02:58:17;-3.80;99.90
20416;DHT22;10367;52.202;5.996;2022-11-20T03:00:46;-3.70;99.90
20416;DHT22;10367;52.202;5.996;2022-11-20T03:03:15;-3.80;99.90
20416;DHT22;10367;52.202;5.996;2022-11-20T03:05:43;-3.70;99.90
20416;DHT22;10367;52.202;5.996;2022-11-20T03:08:12;-3.70;99.90
20416;DHT22;10367;52.202;5.996;2022-11-20T03:10:41;-3.80;99.90
20416;DHT22;10367;52.202;5.996;2022-11-20T03:13:11;-3.80;99.90
20416;DHT22;10367;52.202;5.996;2022-11-20T03:15:39;-3.70;99.90
20416;DHT22;10367;52.202;5.996;2022-11-20T03:18:08;-3.80;99.90
20416;DHT22;10367;52.202;5.996;2022-11-20T03:20:37;-3.70;99.90
20416;DHT22;10367;52.202;5.996;2022-11-20T03:23:06;-3.80;99.90
20416;DHT22;10367;52.202;5.996;2022-11-20T03:25:34;-3.70;99.90
20416;DHT22;10367;52.202;5.996;2022-11-20T03:28:03;-3.70;99.90
20416;DHT22;10367;52.202;5.996;2022-11-20T03:30:33;-3.70;99.90
20416;DHT22;10367;52.202;5.996;2022-11-20T03:33:03;-3.70;99.90
20416;DHT22;10367;52.202;5.996;2022-11-20T03:35:31;-3.70;99.90
20416;DHT22;10367;52.202;5.996;2022-11-20T03:38:00;-3.90;99.90
20416;DHT22;10367;52.202;5.996;2022-11-20T03:40:29;-3.90;99.90
20416;DHT22;10367;52.202;5.996;2022-11-20T03:42:57;-3.90;99.90
20416;DHT22;10367;52.202;5.996;2022-11-20T03:45:26;-3.80;99.90
20416;DHT22;10367;52.202;5.996;2022-11-20T03:47:56;-3.70;99.90
20416;DHT22;10367;52.202;5.996;2022-11-20T03:50:26;-3.70;99.90
20416;DHT22;10367;52.202;5.996;2022-11-20T03:52:54;-3.60;99.90
20416;DHT22;10367;52.202;5.996;2022-11-20T03:55:23;-3.70;99.90
20416;DHT22;10367;52.202;5.996;2022-11-20T03:57:52;-3.70;99.90
20416;DHT22;10367;52.202;5.996;2022-11-20T04:00:20;-3.80;99.90
20416;DHT22;10367;52.202;5.996;2022-11-20T04:02:49;-3.90;99.90
20416;DHT22;10367;52.202;5.996;2022-11-20T04:05:19;-4.00;99.90
20416;DHT22;10367;52.202;5.996;2022-11-20T04:07:49;-3.90;99.90
20416;DHT22;10367;52.202;5.996;2022-11-20T04:10:18;-3.80;99.90
20416;DHT22;10367;52.202;5.996;2022-11-20T04:12:47;-3.90;99.90
20416;DHT22;10367;52.202;5.996;2022-11-20T04:15:24;-4.00;99.90
20416;DHT22;10367;52.202;5.996;2022-11-20T04:17:56;-4.00;99.90
20416;DHT22;10367;52.202;5.996;2022-11-20T04:20:28;-3.90;99.90
20416;DHT22;10367;52.202;5.996;2022-11-20T04:22:59;-3.80;99.90
20416;DHT22;10367;52.202;5.996;2022-11-20T04:25:28;-3.80;99.90
20416;DHT22;10367;52.202;5.996;2022-11-20T04:27:57;-3.80;99.90
20416;DHT22;10367;52.202;5.996;2022-11-20T04:30:26;-3.90;99.90
20416;DHT22;10367;52.202;5.996;2022-11-20T04:32:54;-3.90;99.90
20416;DHT22;10367;52.202;5.996;2022-11-20T04:35:23;-3.90;99.90
20416;DHT22;10367;52.202;5.996;2022-11-20T04:37:53;-3.80;99.90
20416;DHT22;10367;52.202;5.996;2022-11-20T04:40:22;-3.90;99.90
20416;DHT22;10367;52.202;5.996;2022-11-20T04:42:56;-3.90;99.90
20416;DHT22;10367;52.202;5.996;2022-11-20T04:45:26;-4.20;99.90
20416;DHT22;10367;52.202;5.996;2022-11-20T04:47:54;-4.40;99.90
20416;DHT22;10367;52.202;5.996;2022-11-20T04:50:23;-4.40;99.90
20416;DHT22;10367;52.202;5.996;2022-11-20T04:52:54;-4.20;99.90
20416;DHT22;10367;52.202;5.996;2022-11-20T04:55:24;-4.10;99.90
20416;DHT22;10367;52.202;5.996;2022-11-20T04:57:53;-4.00;99.90
20416;DHT22;10367;52.202;5.996;2022-11-20T05:00:22;-3.90;99.90
20416;DHT22;10367;52.202;5.996;2022-11-20T05:02:51;-3.90;99.90
20416;DHT22;10367;52.202;5.996;2022-11-20T05:05:23;-4.00;99.90
20416;DHT22;10367;52.202;5.996;2022-11-20T05:07:58;-4.00;99.90
20416;DHT22;10367;52.202;5.996;2022-11-20T05:10:27;-4.00;99.90
20416;DHT22;10367;52.202;5.996;2022-11-20T05:12:57;-4.00;99.90
20416;DHT22;10367;52.202;5.996;2022-11-20T05:15:26;-4.00;99.90
20416;DHT22;10367;52.202;5.996;2022-11-20T05:17:56;-3.90;99.90
20416;DHT22;10367;52.202;5.996;2022-11-20T05:20:25;-3.90;99.90
20416;DHT22;10367;52.202;5.996;2022-11-20T05:22:58;-4.10;99.90
20416;DHT22;10367;52.202;5.996;2022-11-20T05:25:26;-4.20;99.90
20416;DHT22;10367;52.202;5.996;2022-11-20T05:27:56;-4.10;99.90
20416;DHT22;10367;52.202;5.996;2022-11-20T05:30:25;-4.10;99.90
20416;DHT22;10367;52.202;5.996;2022-11-20T05:32:54;-4.30;99.90
20416;DHT22;10367;52.202;5.996;2022-11-20T05:35:23;-4.50;99.90
20416;DHT22;10367;52.202;5.996;2022-11-20T05:37:52;-4.50;99.90
20416;DHT22;10367;52.202;5.996;2022-11-20T05:40:22;-4.30;99.90
20416;DHT22;10367;52.202;5.996;2022-11-20T05:42:51;-4.30;99.90
20416;DHT22;10367;52.202;5.996;2022-11-20T05:45:19;-4.20;99.90
20416;DHT22;10367;52.202;5.996;2022-11-20T05:47:48;-4.20;99.90
20416;DHT22;10367;52.202;5.996;2022-11-20T05:50:17;-4.40;99.90
20416;DHT22;10367;52.202;5.996;2022-11-20T05:52:46;-4.50;99.90
20416;DHT22;10367;52.202;5.996;2022-11-20T05:55:17;-4.60;99.90
20416;DHT22;10367;52.202;5.996;2022-11-20T05:57:48;-4.70;99.90
20416;DHT22;10367;52.202;5.996;2022-11-20T06:00:17;-4.60;99.90
20416;DHT22;10367;52.202;5.996;2022-11-20T06:02:46;-4.40;99.90
20416;DHT22;10367;52.202;5.996;2022-11-20T06:05:14;-4.30;99.90
20416;DHT22;10367;52.202;5.996;2022-11-20T06:07:43;-4.30;99.90
20416;DHT22;10367;52.202;5.996;2022-11-20T06:10:12;-4.30;99.90
20416;DHT22;10367;52.202;5.996;2022-11-20T06:12:40;-4.20;99.90
20416;DHT22;10367;52.202;5.996;2022-11-20T06:15:12;-4.10;99.90
20416;DHT22;10367;52.202;5.996;2022-11-20T06:17:40;-4.20;99.90
20416;DHT22;10367;52.202;5.996;2022-11-20T06:20:10;-4.20;99.90
20416;DHT22;10367;52.202;5.996;2022-11-20T06:22:39;-4.20;99.90
20416;DHT22;10367;52.202;5.996;2022-11-20T06:25:08;-4.20;99.90
20416;DHT22;10367;52.202;5.996;2022-11-20T06:27:36;-4.30;99.90
20416;DHT22;10367;52.202;5.996;2022-11-20T06:30:06;-4.40;99.90
20416;DHT22;10367;52.202;5.996;2022-11-20T06:32:36;-4.40;99.90
20416;DHT22;10367;52.202;5.996;2022-11-20T06:35:05;-4.30;99.90
20416;DHT22;10367;52.202;5.996;2022-11-20T06:37:34;-4.30;99.90
20416;DHT22;10367;52.202;5.996;2022-11-20T06:40:03;-4.30;99.90
20416;DHT22;10367;52.202;5.996;2022-11-20T06:42:34;-4.30;99.90
20416;DHT22;10367;52.202;5.996;2022-11-20T06:45:03;-4.20;99.90
20416;DHT22;10367;52.202;5.996;2022-11-20T06:47:35;-4.20;99.90
20416;DHT22;10367;52.202;5.996;2022-11-20T06:50:04;-4.40;99.90
20416;DHT22;10367;52.202;5.996;2022-11-20T06:52:33;-4.30;99.90
20416;DHT22;10367;52.202;5.996;2022-11-20T06:55:09;-4.30;99.90
20416;DHT22;10367;52.202;5.996;2022-11-20T06:57:38;-4.30;99.90
20416;DHT22;10367;52.202;5.996;2022-11-20T07:00:07;-4.20;99.90
20416;DHT22;10367;52.202;5.996;2022-11-20T07:02:38;-4.20;99.90
20416;DHT22;10367;52.202;5.996;2022-11-20T07:05:06;-4.30;99.90
20416;DHT22;10367;52.202;5.996;2022-11-20T07:07:35;-4.40;99.90
20416;DHT22;10367;52.202;5.996;2022-11-20T07:10:05;-4.50;99.90
20416;DHT22;10367;52.202;5.996;2022-11-20T07:12:34;-4.40;99.90
20416;DHT22;10367;52.202;5.996;2022-11-20T07:15:03;-4.30;99.90
20416;DHT22;10367;52.202;5.996;2022-11-20T07:17:35;-4.30;99.90
20416;DHT22;10367;52.202;5.996;2022-11-20T07:20:09;-4.20;99.90
20416;DHT22;10367;52.202;5.996;2022-11-20T07:22:38;-4.20;99.90
20416;DHT22;10367;52.202;5.996;2022-11-20T07:25:10;-4.10;99.90
20416;DHT22;10367;52.202;5.996;2022-11-20T07:27:38;-4.30;99.90
20416;DHT22;10367;52.202;5.996;2022-11-20T07:30:08;-4.50;99.90
20416;DHT22;10367;52.202;5.996;2022-11-20T07:32:36;-4.50;99.90
20416;DHT22;10367;52.202;5.996;2022-11-20T07:35:07;-4.40;99.90
20416;DHT22;10367;52.202;5.996;2022-11-20T07:37:36;-4.40;99.90
20416;DHT22;10367;52.202;5.996;2022-11-20T07:40:05;-4.20;99.90
20416;DHT22;10367;52.202;5.996;2022-11-20T07:42:34;-4.10;99.90
20416;DHT22;10367;52.202;5.996;2022-11-20T07:45:03;-4.00;99.90
20416;DHT22;10367;52.202;5.996;2022-11-20T07:47:35;-3.90;99.90
20416;DHT22;10367;52.202;5.996;2022-11-20T07:50:04;-3.80;99.90
20416;DHT22;10367;52.202;5.996;2022-11-20T07:52:35;-4.00;99.90
20416;DHT22;10367;52.202;5.996;2022-11-20T07:55:07;-4.00;99.90
20416;DHT22;10367;52.202;5.996;2022-11-20T07:57:36;-3.80;99.90
20416;DHT22;10367;52.202;5.996;2022-11-20T08:00:09;-3.60;99.90
20416;DHT22;10367;52.202;5.996;2022-11-20T08:02:39;-3.40;99.90
20416;DHT22;10367;52.202;5.996;2022-11-20T08:05:09;-3.30;99.90
20416;DHT22;10367;52.202;5.996;2022-11-20T08:07:40;-3.20;99.90
20416;DHT22;10367;52.202;5.996;2022-11-20T08:10:11;-3.10;99.90
20416;DHT22;10367;52.202;5.996;2022-11-20T08:12:46;-3.10;99.90
20416;DHT22;10367;52.202;5.996;2022-11-20T08:15:32;-3.10;99.90
20416;DHT22;10367;52.202;5.996;2022-11-20T08:18:04;-2.90;99.90
20416;DHT22;10367;52.202;5.996;2022-11-20T08:20:53;-2.90;99.90
20416;DHT22;10367;52.202;5.996;2022-11-20T08:23:26;-2.90;99.90
20416;DHT22;10367;52.202;5.996;2022-11-20T08:25:55;-2.90;99.90
20416;DHT22;10367;52.202;5.996;2022-11-20T08:28:24;-2.90;99.90
20416;DHT22;10367;52.202;5.996;2022-11-20T08:30:58;-2.80;99.90
20416;DHT22;10367;52.202;5.996;2022-11-20T08:33:29;-2.80;99.90
20416;DHT22;10367;52.202;5.996;2022-11-20T08:36:00;-2.60;99.90
20416;DHT22;10367;52.202;5.996;2022-11-20T08:38:31;-2.50;99.90
20416;DHT22;10367;52.202;5.996;2022-11-20T08:41:01;-2.40;99.90
20416;DHT22;10367;52.202;5.996;2022-11-20T08:43:48;-2.20;99.90
20416;DHT22;10367;52.202;5.996;2022-11-20T08:46:17;-2.10;99.90
20416;DHT22;10367;52.202;5.996;2022-11-20T08:48:46;-2.00;99.90
20416;DHT22;10367;52.202;5.996;2022-11-20T08:51:15;-2.00;99.90
20416;DHT22;10367;52.202;5.996;2022-11-20T08:53:45;-2.00;99.90
20416;DHT22;10367;52.202;5.996;2022-11-20T08:56:16;-2.00;99.90
20416;DHT22;10367;52.202;5.996;2022-11-20T08:58:45;-2.10;99.90
20416;DHT22;10367;52.202;5.996;2022-11-20T09:01:33;-2.10;99.90
20416;DHT22;10367;52.202;5.996;2022-11-20T09:04:02;-2.00;99.90
20416;DHT22;10367;52.202;5.996;2022-11-20T09:06:31;-1.90;99.90
20416;DHT22;10367;52.202;5.996;2022-11-20T09:09:02;-1.80;99.90
20416;DHT22;10367;52.202;5.996;2022-11-20T09:11:34;-1.70;99.90
20416;DHT22;10367;52.202;5.996;2022-11-20T09:14:03;-1.60;99.90
20416;DHT22;10367;52.202;5.996;2022-11-20T09:16:32;-1.50;99.90
20416;DHT22;10367;52.202;5.996;2022-11-20T09:19:01;-1.50;99.90
20416;DHT22;10367;52.202;5.996;2022-11-20T09:21:49;-1.40;99.90
20416;DHT22;10367;52.202;5.996;2022-11-20T09:24:26;-1.20;99.90
20416;DHT22;10367;52.202;5.996;2022-11-20T09:26:55;-1.10;99.90
20416;DHT22;10367;52.202;5.996;2022-11-20T09:29:27;-1.00;99.90
20416;DHT22;10367;52.202;5.996;2022-11-20T09:31:56;-0.90;99.90
20416;DHT22;10367;52.202;5.996;2022-11-20T09:34:24;-0.80;99.90
20416;DHT22;10367;52.202;5.996;2022-11-20T09:36:53;-0.70;99.90
20416;DHT22;10367;52.202;5.996;2022-11-20T09:39:22;-0.60;99.90
20416;DHT22;10367;52.202;5.996;2022-11-20T09:45:09;-0.50;99.90
20416;DHT22;10367;52.202;5.996;2022-11-20T09:47:50;-0.30;99.90
20416;DHT22;10367;52.202;5.996;2022-11-20T09:50:28;-0.20;99.90
20416;DHT22;10367;52.202;5.996;2022-11-20T09:53:12;-0.10;99.90
20416;DHT22;10367;52.202;5.996;2022-11-20T09:55:42;0.00;99.90
20416;DHT22;10367;52.202;5.996;2022-11-20T09:58:18;0.10;99.90
20416;DHT22;10367;52.202;5.996;2022-11-20T10:00:51;0.10;99.90
20416;DHT22;10367;52.202;5.996;2022-11-20T10:03:33;0.20;99.90
20416;DHT22;10367;52.202;5.996;2022-11-20T10:06:07;0.30;99.90
20416;DHT22;10367;52.202;5.996;2022-11-20T10:08:41;0.30;99.90
20416;DHT22;10367;52.202;5.996;2022-11-20T10:11:18;0.40;99.90
20416;DHT22;10367;52.202;5.996;2022-11-20T10:13:56;0.40;99.90
20416;DHT22;10367;52.202;5.996;2022-11-20T10:16:36;0.40;99.90
20416;DHT22;10367;52.202;5.996;2022-11-20T10:19:18;0.50;99.90
20416;DHT22;10367;52.202;5.996;2022-11-20T10:22:00;0.60;99.90
20416;DHT22;10367;52.202;5.996;2022-11-20T10:24:48;0.60;99.90
20416;DHT22;10367;52.202;5.996;2022-11-20T10:27:40;0.80;99.90
20416;DHT22;10367;52.202;5.996;2022-11-20T10:30:17;0.90;99.90
20416;DHT22;10367;52.202;5.996;2022-11-20T10:32:50;1.00;99.90
20416;DHT22;10367;52.202;5.996;2022-11-20T10:35:23;1.00;99.90
20416;DHT22;10367;52.202;5.996;2022-11-20T10:38:00;1.10;99.90
20416;DHT22;10367;52.202;5.996;2022-11-20T10:40:35;1.20;99.90
20416;DHT22;10367;52.202;5.996;2022-11-20T10:43:10;1.30;99.90
20416;DHT22;10367;52.202;5.996;2022-11-20T10:45:49;1.30;99.90
20416;DHT22;10367;52.202;5.996;2022-11-20T10:48:21;1.40;99.90
20416;DHT22;10367;52.202;5.996;2022-11-20T10:50:57;1.50;99.90
20416;DHT22;10367;52.202;5.996;2022-11-20T10:56:24;1.60;99.90
20416;DHT22;10367;52.202;5.996;2022-11-20T10:59:19;1.60;99.90
20416;DHT22;10367;52.202;5.996;2022-11-20T11:01:58;1.80;99.90
20416;DHT22;10367;52.202;5.996;2022-11-20T11:04:34;2.00;99.90
20416;DHT22;10367;52.202;5.996;2022-11-20T11:07:10;2.20;99.90
20416;DHT22;10367;52.202;5.996;2022-11-20T11:09:43;2.40;99.90
20416;DHT22;10367;52.202;5.996;2022-11-20T11:12:13;2.40;99.90
20416;DHT22;10367;52.202;5.996;2022-11-20T11:14:43;2.40;99.90
20416;DHT22;10367;52.202;5.996;2022-11-20T11:17:22;2.40;99.90
20416;DHT22;10367;52.202;5.996;2022-11-20T11:20:01;2.50;99.90
20416;DHT22;10367;52.202;5.996;2022-11-20T11:22:32;2.60;99.90
20416;DHT22;10367;52.202;5.996;2022-11-20T11:25:02;2.70;99.90
20416;DHT22;10367;52.202;5.996;2022-11-20T11:27:31;2.90;99.90
20416;DHT22;10367;52.202;5.996;2022-11-20T11:30:13;2.90;99.90
20416;DHT22;10367;52.202;5.996;2022-11-20T11:32:44;2.70;99.90
20416;DHT22;10367;52.202;5.996;2022-11-20T11:35:22;2.70;99.90
20416;DHT22;10367;52.202;5.996;2022-11-20T11:37:54;2.80;99.90
20416;DHT22;10367;52.202;5.996;2022-11-20T11:40:31;2.90;99.90
20416;DHT22;10367;52.202;5.996;2022-11-20T11:43:05;3.00;99.90
20416;DHT22;10367;52.202;5.996;2022-11-20T11:45:58;3.00;99.90
20416;DHT22;10367;52.202;5.996;2022-11-20T11:48:27;3.10;99.90
20416;DHT22;10367;52.202;5.996;2022-11-20T11:50:58;3.00;99.90
20416;DHT22;10367;52.202;5.996;2022-11-20T11:53:28;3.00;99.90
20416;DHT22;10367;52.202;5.996;2022-11-20T11:56:02;3.00;99.90
20416;DHT22;10367;52.202;5.996;2022-11-20T11:58:41;3.00;99.90
20416;DHT22;10367;52.202;5.996;2022-11-20T12:01:22;3.00;99.90
20416;DHT22;10367;52.202;5.996;2022-11-20T12:04:02;3.00;99.90
20416;DHT22;10367;52.202;5.996;2022-11-20T12:06:34;3.00;99.90
20416;DHT22;10367;52.202;5.996;2022-11-20T12:09:08;3.10;99.90
20416;DHT22;10367;52.202;5.996;2022-11-20T12:11:45;3.10;99.90
20416;DHT22;10367;52.202;5.996;2022-11-20T12:14:18;3.10;99.90
20416;DHT22;10367;52.202;5.996;2022-11-20T12:16:51;3.10;99.90
20416;DHT22;10367;52.202;5.996;2022-11-20T12:19:29;3.10;99.90
20416;DHT22;10367;52.202;5.996;2022-11-20T12:22:05;3.10;99.90
20416;DHT22;10367;52.202;5.996;2022-11-20T12:24:44;3.10;99.90
20416;DHT22;10367;52.202;5.996;2022-11-20T12:30:14;3.10;99.90
20416;DHT22;10367;52.202;5.996;2022-11-20T12:32:57;3.00;99.90
20416;DHT22;10367;52.202;5.996;2022-11-20T12:35:42;3.00;99.90
20416;DHT22;10367;52.202;5.996;2022-11-20T12:38:29;2.90;99.90
20416;DHT22;10367;52.202;5.996;2022-11-20T12:41:08;2.90;99.90
20416;DHT22;10367;52.202;5.996;2022-11-20T12:43:45;2.90;99.90
20416;DHT22;10367;52.202;5.996;2022-11-20T12:46:47;2.80;99.90
20416;DHT22;10367;52.202;5.996;2022-11-20T12:49:28;2.70;99.90
20416;DHT22;10367;52.202;5.996;2022-11-20T12:52:14;2.80;99.90
20416;DHT22;10367;52.202;5.996;2022-11-20T12:55:03;2.70;99.90
20416;DHT22;10367;52.202;5.996;2022-11-20T12:57:40;2.80;99.90
20416;DHT22;10367;52.202;5.996;2022-11-20T13:00:14;2.80;99.90
20416;DHT22;10367;52.202;5.996;2022-11-20T13:03:04;2.70;99.90
20416;DHT22;10367;52.202;5.996;2022-11-20T13:05:43;2.70;99.90
20416;DHT22;10367;52.202;5.996;2022-11-20T13:08:20;2.70;99.90
20416;DHT22;10367;52.202;5.996;2022-11-20T13:10:56;2.60;99.90
20416;DHT22;10367;52.202;5.996;2022-11-20T13:13:35;2.70;99.90
20416;DHT22;10367;52.202;5.996;2022-11-20T13:16:14;2.60;99.90
20416;DHT22;10367;52.202;5.996;2022-11-20T13:18:45;2.60;99.90
20416;DHT22;10367;52.202;5.996;2022-11-20T13:21:15;2.70;99.90
20416;DHT22;10367;52.202;5.996;2022-11-20T13:23:45;2.60;99.90
20416;DHT22;10367;52.202;5.996;2022-11-20T13:26:17;2.60;99.90
20416;DHT22;10367;52.202;5.996;2022-11-20T13:28:58;2.50;99.90
20416;DHT22;10367;52.202;5.996;2022-11-20T13:31:31;2.50;99.90
20416;DHT22;10367;52.202;5.996;2022-11-20T13:34:03;2.50;99.90
20416;DHT22;10367;52.202;5.996;2022-11-20T13:36:32;2.60;99.90
20416;DHT22;10367;52.202;5.996;2022-11-20T13:39:05;2.60;99.90
20416;DHT22;10367;52.202;5.996;2022-11-20T13:41:35;2.60;99.90
20416;DHT22;10367;52.202;5.996;2022-11-20T13:44:10;2.60;99.90
20416;DHT22;10367;52.202;5.996;2022-11-20T13:46:42;2.60;99.90
20416;DHT22;10367;52.202;5.996;2022-11-20T13:49:18;2.60;99.90
20416;DHT22;10367;52.202;5.996;2022-11-20T13:51:48;2.50;99.90
20416;DHT22;10367;52.202;5.996;2022-11-20T13:54:44;2.50;99.90
20416;DHT22;10367;52.202;5.996;2022-11-20T14:00:19;2.40;99.90
20416;DHT22;10367;52.202;5.996;2022-11-20T14:03:00;2.40;99.90
20416;DHT22;10367;52.202;5.996;2022-11-20T14:05:33;2.40;99.90
20416;DHT22;10367;52.202;5.996;2022-11-20T14:08:04;2.40;99.90
20416;DHT22;10367;52.202;5.996;2022-11-20T14:10:35;2.40;99.90
20416;DHT22;10367;52.202;5.996;2022-11-20T14:13:17;2.40;99.90
20416;DHT22;10367;52.202;5.996;2022-11-20T14:15:47;2.40;99.90
20416;DHT22;10367;52.202;5.996;2022-11-20T14:18:20;2.40;99.90
20416;DHT22;10367;52.202;5.996;2022-11-20T14:20:49;2.30;99.90
20416;DHT22;10367;52.202;5.996;2022-11-20T14:23:25;2.30;99.90
20416;DHT22;10367;52.202;5.996;2022-11-20T14:25:59;2.40;99.90
20416;DHT22;10367;52.202;5.996;2022-11-20T14:28:29;2.30;99.90
20416;DHT22;10367;52.202;5.996;2022-11-20T14:30:58;2.30;99.90
20416;DHT22;10367;52.202;5.996;2022-11-20T14:33:27;2.30;99.90
20416;DHT22;10367;52.202;5.996;2022-11-20T14:35:59;2.30;99.90
20416;DHT22;10367;52.202;5.996;2022-11-20T14:38:28;2.30;99.90
20416;DHT22;10367;52.202;5.996;2022-11-20T14:41:17;2.30;99.90
20416;DHT22;10367;52.202;5.996;2022-11-20T14:43:48;2.30;99.90
20416;DHT22;10367;52.202;5.996;2022-11-20T14:46:18;2.20;99.90
20416;DHT22;10367;52.202;5.996;2022-11-20T14:48:48;2.30;99.90
20416;DHT22;10367;52.202;5.996;2022-11-20T14:51:27;2.30;99.90
20416;DHT22;10367;52.202;5.996;2022-11-20T14:54:08;2.30;99.90
20416;DHT22;10367;52.202;5.996;2022-11-20T14:56:38;2.30;99.90
20416;DHT22;10367;52.202;5.996;2022-11-20T14:59:08;2.30;99.90
20416;DHT22;10367;52.202;5.996;2022-11-20T15:01:37;2.30;99.90
20416;DHT22;10367;52.202;5.996;2022-11-20T15:04:09;2.30;99.90
20416;DHT22;10367;52.202;5.996;2022-11-20T15:06:48;2.40;99.90
20416;DHT22;10367;52.202;5.996;2022-11-20T15:09:18;2.30;99.90
20416;DHT22;10367;52.202;5.996;2022-11-20T15:11:55;2.30;99.90
20416;DHT22;10367;52.202;5.996;2022-11-20T15:14:25;2.30;99.90
20416;DHT22;10367;52.202;5.996;2022-11-20T15:16:54;2.30;99.90
20416;DHT22;10367;52.202;5.996;2022-11-20T15:19:26;2.30;99.90
20416;DHT22;10367;52.202;5.996;2022-11-20T15:21:56;2.30;99.90
20416;DHT22;10367;52.202;5.996;2022-11-20T15:24:24;2.20;99.90
20416;DHT22;10367;52.202;5.996;2022-11-20T15:26:54;2.30;99.90
20416;DHT22;10367;52.202;5.996;2022-11-20T15:29:23;2.30;99.90
20416;DHT22;10367;52.202;5.996;2022-11-20T15:31:53;2.30;99.90
20416;DHT22;10367;52.202;5.996;2022-11-20T15:34:23;2.30;99.90
20416;DHT22;10367;52.202;5.996;2022-11-20T15:36:52;2.20;99.90
20416;DHT22;10367;52.202;5.996;2022-11-20T15:39:22;2.20;99.90
20416;DHT22;10367;52.202;5.996;2022-11-20T15:41:50;2.20;99.90
20416;DHT22;10367;52.202;5.996;2022-11-20T15:44:20;2.20;99.90
20416;DHT22;10367;52.202;5.996;2022-11-20T15:46:50;2.20;99.90
20416;DHT22;10367;52.202;5.996;2022-11-20T15:49:19;2.20;99.90
20416;DHT22;10367;52.202;5.996;2022-11-20T15:51:50;2.20;99.90
20416;DHT22;10367;52.202;5.996;2022-11-20T15:54:21;2.20;99.90
20416;DHT22;10367;52.202;5.996;2022-11-20T15:56:51;2.30;99.90
20416;DHT22;10367;52.202;5.996;2022-11-20T15:59:21;2.30;99.90
20416;DHT22;10367;52.202;5.996;2022-11-20T16:01:50;2.30;99.90
20416;DHT22;10367;52.202;5.996;2022-11-20T16:04:19;2.30;99.90
20416;DHT22;10367;52.202;5.996;2022-11-20T16:06:48;2.30;99.90
20416;DHT22;10367;52.202;5.996;2022-11-20T16:09:17;2.30;99.90
20416;DHT22;10367;52.202;5.996;2022-11-20T16:11:45;2.30;99.90
20416;DHT22;10367;52.202;5.996;2022-11-20T16:14:14;2.30;99.90
20416;DHT22;10367;52.202;5.996;2022-11-20T16:17:02;2.30;99.90
20416;DHT22;10367;52.202;5.996;2022-11-20T16:19:31;2.30;99.90
20416;DHT22;10367;52.202;5.996;2022-11-20T16:21:59;2.30;99.90